createdAt,value
2023-05-14T00:01:28.086Z,9.35
2023-05-14T00:03:54.906Z,8.94
2023-05-14T00:06:21.595Z,8.58
2023-05-14T00:08:48.050Z,8.26
2023-05-14T00:11:14.830Z,8.00
2023-05-14T00:13:41.443Z,7.78
2023-05-14T00:16:07.946Z,7.61
2023-05-14T00:18:34.912Z,7.46
2023-05-14T00:21:01.531Z,7.31
2023-05-14T00:23:28.254Z,7.14
2023-05-14T00:25:55.028Z,6.99
2023-05-14T00:28:21.834Z,6.86
2023-05-14T00:30:48.408Z,6.74
2023-05-14T00:33:15.621Z,6.64
2023-05-14T00:35:43.540Z,6.56
2023-05-14T00:38:16.267Z,6.52
2023-05-14T00:40:45.143Z,7.08
2023-05-14T00:43:11.916Z,8.00
2023-05-14T00:45:38.632Z,8.76
2023-05-14T00:48:06.335Z,9.31
2023-05-14T00:50:34.006Z,9.72
2023-05-14T00:53:00.698Z,10.03
2023-05-14T00:55:28.694Z,10.32
2023-05-14T00:57:55.800Z,10.56
2023-05-14T01:00:22.702Z,10.77
2023-05-14T01:02:50.087Z,10.94
2023-05-14T01:05:17.034Z,11.07
2023-05-14T01:08:18.107Z,10.63
2023-05-14T01:10:50.602Z,9.66
2023-05-14T01:13:32.450Z,9.01
2023-05-14T01:15:59.179Z,8.43
2023-05-14T01:18:26.560Z,7.99
2023-05-14T01:20:53.809Z,7.62
2023-05-14T01:23:20.563Z,7.31
2023-05-14T01:25:47.143Z,7.06
2023-05-14T01:28:18.377Z,6.86
2023-05-14T01:30:52.204Z,6.68
2023-05-14T01:33:19.018Z,6.52
2023-05-14T01:35:45.733Z,6.37
2023-05-14T01:38:14.340Z,6.22
2023-05-14T01:40:41.240Z,6.57
2023-05-14T01:43:08.202Z,7.47
2023-05-14T01:45:36.356Z,8.24
2023-05-14T01:48:05.126Z,8.82
2023-05-14T01:50:31.988Z,9.24
2023-05-14T01:52:58.689Z,9.54
2023-05-14T01:55:25.265Z,9.80
2023-05-14T01:57:54.402Z,10.01
2023-05-14T02:00:23.416Z,10.21
2023-05-14T02:02:50.457Z,10.38
2023-05-14T02:05:17.333Z,10.22
2023-05-14T02:07:43.963Z,9.44
2023-05-14T02:10:10.690Z,8.70
2023-05-14T02:12:37.871Z,8.12
2023-05-14T02:15:05.219Z,7.68
2023-05-14T02:17:32.405Z,7.32
2023-05-14T02:19:59.099Z,7.00
2023-05-14T02:22:25.843Z,6.74
2023-05-14T02:24:52.667Z,6.50
2023-05-14T02:27:19.335Z,6.29
2023-05-14T02:29:46.889Z,6.09
2023-05-14T02:32:13.936Z,5.92
2023-05-14T02:34:40.565Z,5.75
2023-05-14T02:37:07.231Z,5.62
2023-05-14T02:39:33.916Z,6.00
2023-05-14T02:42:00.680Z,6.92
2023-05-14T02:44:27.352Z,7.68
2023-05-14T02:46:54.302Z,8.26
2023-05-14T02:49:21.729Z,8.71
2023-05-14T02:51:48.463Z,9.03
2023-05-14T02:54:16.171Z,9.30
2023-05-14T02:56:42.904Z,9.54
2023-05-14T02:59:09.505Z,9.76
2023-05-14T03:01:36.853Z,9.97
2023-05-14T03:04:04.455Z,10.04
2023-05-14T03:06:31.382Z,9.42
2023-05-14T03:08:58.005Z,8.68
2023-05-14T03:11:24.933Z,8.14
2023-05-14T03:13:51.675Z,7.82
2023-05-14T03:16:18.451Z,7.63
2023-05-14T03:18:45.238Z,7.50
2023-05-14T03:21:12.002Z,7.37
2023-05-14T03:23:38.832Z,7.28
2023-05-14T03:26:05.819Z,7.24
2023-05-14T03:28:32.824Z,7.21
2023-05-14T03:30:59.811Z,7.21
2023-05-14T03:33:26.458Z,7.22
2023-05-14T03:35:53.268Z,7.22
2023-05-14T03:38:21.217Z,7.22
2023-05-14T03:40:49.365Z,7.25
2023-05-14T03:43:16.132Z,7.34
2023-05-14T03:45:44.204Z,7.47
2023-05-14T03:48:11.127Z,7.62
2023-05-14T03:50:38.187Z,7.73
2023-05-14T03:53:05.791Z,7.81
2023-05-14T03:55:32.449Z,8.02
2023-05-14T03:57:59.136Z,8.97
2023-05-14T04:00:26.081Z,10.10
2023-05-14T04:02:54.256Z,11.02
2023-05-14T04:05:22.916Z,11.81
2023-05-14T04:07:49.767Z,12.31
2023-05-14T04:10:16.550Z,12.10
2023-05-14T04:12:43.239Z,11.85
2023-05-14T04:15:10.860Z,11.76
2023-05-14T04:17:37.632Z,11.78
2023-05-14T04:20:05.528Z,11.86
2023-05-14T04:22:32.112Z,12.02
2023-05-14T04:24:58.781Z,12.23
2023-05-14T04:27:25.637Z,12.46
2023-05-14T04:29:52.246Z,12.74
2023-05-14T04:32:18.844Z,13.07
2023-05-14T04:34:46.762Z,13.42
2023-05-14T04:37:13.455Z,13.78
2023-05-14T04:39:40.124Z,14.15
2023-05-14T04:42:07.377Z,14.56
2023-05-14T04:44:34.848Z,15.00
2023-05-14T04:47:02.306Z,15.45
2023-05-14T04:49:29.733Z,15.88
2023-05-14T04:51:56.351Z,16.33
2023-05-14T04:54:22.989Z,16.93
2023-05-14T04:56:50.248Z,17.59
2023-05-14T04:59:17.130Z,18.29
2023-05-14T05:01:44.630Z,18.99
2023-05-14T05:04:11.561Z,19.66
2023-05-14T05:06:38.525Z,20.21
2023-05-14T05:09:05.017Z,20.58
2023-05-14T05:11:31.715Z,20.94
2023-05-14T05:13:58.290Z,21.32
2023-05-14T05:16:25.193Z,21.73
2023-05-14T05:18:51.854Z,22.15
2023-05-14T05:21:20.939Z,22.55
2023-05-14T05:23:48.938Z,22.96
2023-05-14T05:26:16.133Z,23.37
2023-05-14T05:28:42.753Z,23.73
2023-05-14T05:31:10.832Z,24.02
2023-05-14T05:33:37.536Z,24.39
2023-05-14T05:36:04.728Z,24.69
2023-05-14T05:38:31.355Z,25.02
2023-05-14T05:40:59.075Z,25.36
2023-05-14T05:43:25.939Z,25.71
2023-05-14T05:45:52.592Z,26.00
2023-05-14T05:48:19.347Z,26.26
2023-05-14T05:50:49.883Z,26.46
2023-05-14T05:53:16.932Z,26.61
2023-05-14T05:55:43.701Z,26.72
2023-05-14T05:58:10.312Z,26.81
2023-05-14T06:00:37.032Z,26.94
2023-05-14T06:03:03.674Z,27.19
2023-05-14T06:05:30.505Z,27.35
2023-05-14T06:07:57.275Z,27.49
2023-05-14T06:10:24.061Z,27.58
2023-05-14T06:12:50.845Z,27.60
2023-05-14T06:15:18.056Z,27.72
2023-05-14T06:17:45.329Z,27.88
2023-05-14T06:20:12.290Z,28.10
2023-05-14T06:22:39.009Z,28.25
2023-05-14T06:25:06.945Z,28.42
2023-05-14T06:27:33.501Z,28.61
2023-05-14T06:30:00.935Z,28.81
2023-05-14T06:32:27.683Z,28.79
2023-05-14T06:34:54.339Z,28.66
2023-05-14T06:37:21.890Z,28.61
2023-05-14T06:39:52.713Z,28.57
2023-05-14T06:42:19.432Z,28.55
2023-05-14T06:44:47.753Z,28.68
2023-05-14T06:47:14.396Z,28.71
2023-05-14T06:49:41.141Z,28.71
2023-05-14T06:52:07.824Z,28.85
2023-05-14T06:54:34.563Z,29.07
2023-05-14T06:57:01.470Z,29.15
2023-05-14T06:59:28.245Z,29.28
2023-05-14T07:01:55.007Z,29.37
2023-05-14T07:04:21.678Z,29.33
2023-05-14T07:06:53.673Z,29.13
2023-05-14T07:09:20.309Z,28.96
2023-05-14T07:11:46.970Z,28.78
2023-05-14T07:14:13.664Z,28.63
2023-05-14T07:16:41.041Z,28.41
2023-05-14T07:19:07.718Z,28.29
2023-05-14T07:21:35.471Z,28.25
2023-05-14T07:24:02.156Z,28.25
2023-05-14T07:26:28.844Z,28.06
2023-05-14T07:28:56.154Z,27.80
2023-05-14T07:31:22.835Z,27.60
2023-05-14T07:33:49.490Z,27.61
2023-05-14T07:36:16.048Z,27.78
2023-05-14T07:38:42.806Z,27.79
2023-05-14T07:41:11.576Z,27.78
2023-05-14T07:43:39.899Z,27.81
2023-05-14T07:46:06.574Z,27.92
2023-05-14T07:48:33.329Z,28.19
2023-05-14T07:51:00.282Z,28.40
2023-05-14T07:53:26.945Z,28.39
2023-05-14T07:55:54.026Z,28.45
2023-05-14T07:58:20.693Z,28.36
2023-05-14T08:00:47.412Z,28.31
2023-05-14T08:03:14.263Z,28.29
2023-05-14T08:05:41.117Z,28.49
2023-05-14T08:08:07.780Z,28.46
2023-05-14T08:10:34.462Z,28.20
2023-05-14T08:13:01.282Z,27.97
2023-05-14T08:15:28.144Z,27.95
2023-05-14T08:17:55.199Z,28.02
2023-05-14T08:20:22.612Z,27.99
2023-05-14T08:22:49.400Z,27.75
2023-05-14T08:25:16.069Z,27.67
2023-05-14T08:27:42.680Z,27.48
2023-05-14T08:30:09.820Z,26.98
2023-05-14T08:32:37.926Z,26.26
2023-05-14T08:35:05.601Z,25.25
2023-05-14T08:37:32.208Z,24.53
2023-05-14T08:39:58.847Z,24.04
2023-05-14T08:42:25.516Z,23.60
2023-05-14T08:45:04.102Z,23.26
2023-05-14T08:47:31.062Z,23.03
2023-05-14T08:50:05.882Z,22.91
2023-05-14T08:52:33.433Z,22.92
2023-05-14T08:55:00.878Z,22.88
2023-05-14T08:57:27.941Z,22.85
2023-05-14T08:59:54.621Z,22.81
2023-05-14T09:02:24.635Z,22.87
2023-05-14T09:04:59.067Z,22.85
2023-05-14T09:07:25.756Z,22.79
2023-05-14T09:09:52.570Z,22.70
2023-05-14T09:12:19.494Z,22.71
2023-05-14T09:14:47.359Z,22.77
2023-05-14T09:17:14.419Z,22.87
2023-05-14T09:19:41.407Z,22.91
2023-05-14T09:22:12.367Z,22.98
2023-05-14T09:24:39.203Z,23.04
2023-05-14T09:27:06.271Z,23.07
2023-05-14T09:29:33.131Z,23.09
2023-05-14T09:32:04.081Z,23.10
2023-05-14T09:34:33.320Z,23.15
2023-05-14T09:37:02.183Z,23.09
2023-05-14T09:39:29.202Z,22.98
2023-05-14T09:41:56.252Z,22.96
2023-05-14T09:44:23.146Z,23.09
2023-05-14T09:46:50.263Z,23.28
2023-05-14T09:49:17.159Z,23.42
2023-05-14T09:51:44.116Z,23.45
2023-05-14T09:54:10.738Z,23.42
2023-05-14T09:56:38.939Z,23.33
2023-05-14T09:59:05.760Z,23.25
2023-05-14T10:01:33.595Z,23.20
2023-05-14T10:04:06.573Z,23.11
2023-05-14T10:06:36.311Z,22.96
2023-05-14T10:09:05.198Z,22.92
2023-05-14T10:11:33.890Z,23.00
2023-05-14T10:14:35.450Z,23.09
2023-05-14T10:17:02.441Z,23.08
2023-05-14T10:19:29.174Z,23.02
2023-05-14T10:21:57.966Z,22.99
2023-05-14T10:24:24.763Z,23.05
2023-05-14T10:26:51.487Z,23.08
2023-05-14T10:29:18.154Z,23.14
2023-05-14T10:31:53.586Z,23.11
2023-05-14T10:34:40.069Z,22.94
2023-05-14T10:37:10.279Z,22.85
2023-05-14T10:39:54.337Z,22.87
2023-05-14T10:42:29.251Z,22.89
2023-05-14T10:45:01.382Z,22.76
2023-05-14T10:47:31.542Z,22.73
2023-05-14T10:50:00.861Z,22.83
2023-05-14T10:52:27.466Z,22.96
2023-05-14T10:55:03.471Z,23.11
2023-05-14T10:57:31.623Z,23.26
2023-05-14T11:00:00.654Z,23.43
2023-05-14T11:02:30.965Z,23.61
2023-05-14T11:05:07.679Z,23.72
2023-05-14T11:07:37.409Z,23.65
2023-05-14T11:10:08.695Z,23.52
2023-05-14T11:12:37.383Z,23.51
2023-05-14T11:15:09.614Z,23.57
2023-05-14T11:17:37.813Z,23.71
2023-05-14T11:20:06.042Z,24.03
2023-05-14T11:22:34.154Z,24.23
2023-05-14T11:25:00.880Z,24.36
2023-05-14T11:27:27.876Z,24.42
2023-05-14T11:29:55.411Z,24.41
2023-05-14T11:32:22.033Z,24.43
2023-05-14T11:34:48.878Z,24.44
2023-05-14T11:37:15.861Z,24.46
2023-05-14T11:39:50.458Z,24.45
2023-05-14T11:42:18.853Z,24.32
2023-05-14T11:44:48.638Z,24.18
2023-05-14T11:47:17.738Z,24.14
2023-05-14T11:49:45.084Z,24.30
2023-05-14T11:52:15.830Z,24.42
2023-05-14T11:54:43.580Z,24.34
2023-05-14T11:57:21.006Z,24.21
2023-05-14T11:59:49.275Z,24.31
2023-05-14T12:02:18.204Z,24.41
2023-05-14T12:04:49.732Z,24.39
2023-05-14T12:07:16.447Z,24.42
2023-05-14T12:09:50.267Z,24.53
2023-05-14T12:12:21.751Z,24.65
2023-05-14T12:14:49.341Z,24.65
2023-05-14T12:17:22.792Z,24.74
2023-05-14T12:19:51.410Z,24.86
2023-05-14T12:22:22.783Z,24.89
2023-05-14T12:24:56.929Z,24.92
2023-05-14T12:27:28.126Z,24.96
2023-05-14T12:30:18.996Z,25.10
2023-05-14T12:32:52.224Z,25.27
2023-05-14T12:35:20.902Z,25.38
2023-05-14T12:37:47.504Z,25.43
2023-05-14T12:40:14.240Z,25.43
2023-05-14T12:42:41.120Z,25.43
2023-05-14T12:45:08.369Z,25.46
2023-05-14T12:47:35.632Z,25.46
2023-05-14T12:50:03.337Z,25.49
2023-05-14T12:55:00.740Z,25.22
2023-05-14T12:57:27.765Z,25.06
2023-05-14T12:59:54.686Z,24.90
2023-05-14T13:02:21.382Z,24.66
2023-05-14T13:04:48.042Z,24.47
2023-05-14T13:07:15.166Z,24.31
2023-05-14T13:09:41.809Z,24.25
2023-05-14T13:12:09.264Z,24.30
2023-05-14T13:14:36.208Z,24.50
2023-05-14T13:17:04.753Z,24.74
2023-05-14T13:19:31.650Z,25.07
2023-05-14T13:21:58.372Z,25.27
2023-05-14T13:24:25.042Z,25.21
2023-05-14T13:26:51.572Z,25.13
2023-05-14T13:29:18.194Z,25.12
2023-05-14T13:31:45.124Z,25.08
2023-05-14T13:34:12.716Z,24.78
2023-05-14T13:36:40.072Z,24.74
2023-05-14T13:39:06.988Z,24.85
2023-05-14T13:41:37.855Z,24.89
2023-05-14T13:44:04.853Z,24.86
2023-05-14T13:46:31.508Z,24.91
2023-05-14T13:48:58.362Z,25.08
2023-05-14T13:51:25.091Z,25.17
2023-05-14T13:53:51.638Z,25.17
2023-05-14T13:56:19.071Z,25.03
2023-05-14T13:58:45.709Z,24.73
2023-05-14T14:01:12.512Z,24.39
2023-05-14T14:03:39.292Z,24.09
2023-05-14T14:06:05.973Z,23.81
2023-05-14T14:08:32.880Z,23.56
2023-05-14T14:10:59.624Z,23.33
2023-05-14T14:13:27.274Z,23.09
2023-05-14T14:15:54.026Z,23.00
2023-05-14T14:18:20.863Z,23.09
2023-05-14T14:20:47.434Z,23.22
2023-05-14T14:23:14.129Z,23.22
2023-05-14T14:25:40.868Z,23.18
2023-05-14T14:28:07.615Z,23.07
2023-05-14T14:30:34.452Z,23.04
2023-05-14T14:33:01.421Z,23.23
2023-05-14T14:35:28.095Z,23.52
2023-05-14T14:37:55.119Z,23.80
2023-05-14T14:40:23.355Z,24.10
2023-05-14T14:42:50.181Z,24.23
2023-05-14T14:45:17.151Z,24.25
2023-05-14T14:47:45.728Z,24.31
2023-05-14T14:50:13.092Z,24.40
2023-05-14T14:52:45.261Z,24.29
2023-05-14T14:55:12.483Z,24.18
2023-05-14T14:57:40.151Z,23.91
2023-05-14T15:00:08.675Z,23.64
2023-05-14T15:02:37.737Z,23.39
2023-05-14T15:05:05.906Z,23.18
2023-05-14T15:07:32.691Z,23.03
2023-05-14T15:09:59.506Z,22.95
2023-05-14T15:12:26.123Z,23.01
2023-05-14T15:14:52.763Z,23.11
2023-05-14T15:17:19.622Z,23.20
2023-05-14T15:19:47.060Z,23.27
2023-05-14T15:22:13.799Z,23.35
2023-05-14T15:24:40.538Z,23.45
2023-05-14T15:27:07.226Z,23.52
2023-05-14T15:29:34.035Z,23.58
2023-05-14T15:32:01.722Z,23.60
2023-05-14T15:34:28.408Z,23.48
2023-05-14T15:36:55.057Z,23.26
2023-05-14T15:39:21.689Z,23.02
2023-05-14T15:41:48.432Z,22.84
2023-05-14T15:44:15.380Z,22.78
2023-05-14T15:46:42.273Z,22.74
2023-05-14T15:49:09.003Z,22.70
2023-05-14T15:51:35.798Z,22.64
2023-05-14T15:54:03.663Z,22.56
2023-05-14T15:56:30.814Z,22.45
2023-05-14T15:58:57.657Z,22.33
2023-05-14T16:01:24.422Z,22.18
2023-05-14T16:03:52.333Z,22.06
2023-05-14T16:06:19.097Z,21.95
2023-05-14T16:08:45.946Z,21.80
2023-05-14T16:11:12.733Z,21.69
2023-05-14T16:13:41.164Z,21.61
2023-05-14T16:16:08.032Z,21.54
2023-05-14T16:18:34.924Z,21.47
2023-05-14T16:21:01.688Z,21.38
2023-05-14T16:23:28.424Z,21.33
2023-05-14T16:25:55.165Z,21.30
2023-05-14T16:28:21.881Z,21.31
2023-05-14T16:30:49.153Z,21.31
2023-05-14T16:33:15.791Z,21.32
2023-05-14T16:35:42.530Z,21.31
2023-05-14T16:38:09.371Z,21.31
2023-05-14T16:40:37.854Z,21.34
2023-05-14T16:43:05.010Z,21.36
2023-05-14T16:45:34.200Z,21.34
2023-05-14T16:48:00.971Z,21.31
2023-05-14T16:50:27.932Z,21.29
2023-05-14T16:52:54.717Z,21.24
2023-05-14T16:55:21.470Z,21.18
2023-05-14T16:57:49.365Z,21.12
2023-05-14T17:00:16.168Z,21.05
2023-05-14T17:02:43.010Z,20.99
2023-05-14T17:05:09.949Z,20.92
2023-05-14T17:07:38.023Z,20.86
2023-05-14T17:10:06.441Z,20.80
2023-05-14T17:12:33.230Z,20.73
2023-05-14T17:15:01.106Z,20.65
2023-05-14T17:17:29.495Z,20.56
2023-05-14T17:19:56.323Z,20.48
2023-05-14T17:22:23.068Z,20.40
2023-05-14T17:24:49.924Z,20.31
2023-05-14T17:27:16.848Z,20.22
2023-05-14T17:29:43.890Z,20.12
2023-05-14T17:32:10.581Z,20.01
2023-05-14T17:34:37.366Z,19.87
2023-05-14T17:37:04.445Z,19.73
2023-05-14T17:39:31.357Z,19.58
2023-05-14T17:41:57.998Z,19.44
2023-05-14T17:44:24.750Z,19.27
2023-05-14T17:46:51.548Z,19.09
2023-05-14T17:49:18.334Z,18.94
2023-05-14T17:51:45.277Z,18.80
2023-05-14T17:54:11.908Z,18.68
2023-05-14T17:56:38.851Z,18.56
2023-05-14T17:59:05.512Z,18.44
2023-05-14T18:01:32.395Z,18.30
2023-05-14T18:03:59.112Z,18.19
2023-05-14T18:06:26.009Z,18.07
2023-05-14T18:08:52.839Z,17.97
2023-05-14T18:11:19.439Z,17.87
2023-05-14T18:13:46.243Z,17.76
2023-05-14T18:16:13.050Z,17.62
2023-05-14T18:18:39.896Z,17.49
2023-05-14T18:21:06.871Z,17.36
2023-05-14T18:23:33.820Z,17.24
2023-05-14T18:26:00.901Z,17.12
2023-05-14T18:28:27.508Z,17.02
2023-05-14T18:30:54.212Z,16.91
2023-05-14T18:33:20.777Z,16.81
2023-05-14T18:35:47.422Z,16.72
2023-05-14T18:38:17.324Z,16.62
2023-05-14T18:40:45.505Z,16.54
2023-05-14T18:43:12.955Z,16.44
2023-05-14T18:45:40.003Z,16.34
2023-05-14T18:48:06.845Z,16.24
2023-05-14T18:50:34.394Z,16.15
2023-05-14T18:53:01.006Z,16.08
2023-05-14T18:55:28.394Z,16.01
2023-05-14T18:57:54.976Z,15.95
2023-05-14T19:00:21.977Z,15.87
2023-05-14T19:02:48.805Z,15.79
2023-05-14T19:05:15.867Z,15.71
2023-05-14T19:07:43.212Z,15.63
2023-05-14T19:10:10.473Z,15.55
2023-05-14T19:12:37.209Z,15.47
2023-05-14T19:15:05.025Z,15.39
2023-05-14T19:17:32.258Z,15.31
2023-05-14T19:19:59.019Z,15.24
2023-05-14T19:22:25.590Z,15.19
2023-05-14T19:24:52.449Z,15.13
2023-05-14T19:27:20.075Z,15.06
2023-05-14T19:29:46.949Z,15.00
2023-05-14T19:32:13.580Z,14.94
2023-05-14T19:34:40.450Z,14.90
2023-05-14T19:37:07.576Z,14.86
2023-05-14T19:39:34.410Z,14.83
2023-05-14T19:42:01.050Z,14.81
2023-05-14T19:44:27.688Z,14.78
2023-05-14T19:46:54.544Z,14.74
2023-05-14T19:49:21.376Z,14.70
2023-05-14T19:51:48.155Z,14.66
2023-05-14T19:54:14.890Z,14.61
2023-05-14T19:56:41.518Z,14.56
2023-05-14T19:59:08.119Z,14.52
2023-05-14T20:01:35.012Z,14.48
2023-05-14T20:04:02.009Z,14.44
2023-05-14T20:06:28.738Z,14.42
2023-05-14T20:08:56.411Z,14.41
2023-05-14T20:11:23.075Z,14.42
2023-05-14T20:13:49.890Z,14.44
2023-05-14T20:16:16.565Z,14.44
2023-05-14T20:18:44.077Z,14.44
2023-05-14T20:21:11.358Z,14.45
2023-05-14T20:23:38.210Z,14.45
2023-05-14T20:26:04.868Z,14.44
2023-05-14T20:28:31.569Z,14.41
2023-05-14T20:30:59.443Z,14.38
2023-05-14T20:33:28.419Z,14.33
2023-05-14T20:35:55.596Z,14.29
2023-05-14T20:38:22.370Z,14.25
2023-05-14T20:40:49.554Z,14.23
2023-05-14T20:43:16.154Z,14.22
2023-05-14T20:45:42.926Z,14.21
2023-05-14T20:48:14.373Z,14.22
2023-05-14T20:50:42.356Z,14.22
2023-05-14T20:53:08.994Z,14.23
2023-05-14T20:55:35.852Z,14.25
2023-05-14T20:58:02.591Z,14.27
2023-05-14T21:00:29.315Z,14.30
2023-05-14T21:02:59.887Z,14.32
2023-05-14T21:05:27.250Z,14.33
2023-05-14T21:07:54.236Z,14.33
2023-05-14T21:10:20.975Z,14.35
2023-05-14T21:12:48.226Z,14.36
2023-05-14T21:15:15.288Z,14.37
2023-05-14T21:17:42.225Z,14.38
2023-05-14T21:20:11.344Z,14.38
2023-05-14T21:22:38.053Z,14.39
2023-05-14T21:25:05.421Z,14.40
2023-05-14T21:27:32.129Z,14.42
2023-05-14T21:29:58.892Z,14.42
2023-05-14T21:32:25.664Z,14.44
2023-05-14T21:34:52.474Z,14.46
2023-05-14T21:37:21.051Z,14.48
2023-05-14T21:39:48.089Z,14.48
2023-05-14T21:42:15.723Z,14.50
2023-05-14T21:44:42.503Z,14.51
2023-05-14T21:47:10.165Z,14.52
2023-05-14T21:49:37.008Z,14.54
2023-05-14T21:52:04.670Z,14.56
2023-05-14T21:54:31.500Z,14.58
2023-05-14T21:56:58.233Z,14.61
2023-05-14T21:59:24.912Z,14.63
2023-05-14T22:02:06.123Z,14.65
2023-05-14T22:04:34.483Z,14.67
2023-05-14T22:07:01.080Z,14.69
2023-05-14T22:09:27.681Z,14.71
2023-05-14T22:11:54.418Z,14.73
2023-05-14T22:14:21.079Z,14.75
2023-05-14T22:16:47.692Z,14.76
2023-05-14T22:19:15.955Z,14.78
2023-05-14T22:21:42.756Z,14.79
2023-05-14T22:24:09.370Z,14.80
2023-05-14T22:26:36.111Z,14.80
2023-05-14T22:29:02.894Z,14.82
2023-05-14T22:31:29.667Z,14.83
2023-05-14T22:33:56.529Z,14.84
2023-05-14T22:36:23.178Z,14.85
2023-05-14T22:38:49.839Z,14.86
2023-05-14T22:41:19.438Z,14.87
2023-05-14T22:43:48.097Z,14.87
2023-05-14T22:46:15.587Z,14.86
2023-05-14T22:48:42.401Z,14.87
2023-05-14T22:51:09.141Z,14.86
2023-05-14T22:53:35.721Z,14.87
2023-05-14T22:56:02.561Z,14.87
2023-05-14T22:58:31.328Z,14.88
2023-05-14T23:00:59.482Z,14.88
2023-05-14T23:03:26.266Z,14.87
2023-05-14T23:05:53.057Z,14.87
2023-05-14T23:08:19.896Z,14.86
2023-05-14T23:10:46.650Z,14.86
2023-05-14T23:13:13.235Z,14.85
2023-05-14T23:15:40.428Z,14.83
2023-05-14T23:18:07.285Z,14.82
2023-05-14T23:20:34.206Z,14.81
2023-05-14T23:23:00.850Z,14.81
2023-05-14T23:25:27.469Z,14.81
2023-05-14T23:27:54.222Z,14.80
2023-05-14T23:30:20.884Z,14.79
2023-05-14T23:32:47.665Z,14.78
2023-05-14T23:35:14.556Z,14.76
2023-05-14T23:37:46.990Z,14.74
2023-05-14T23:40:15.499Z,14.71
2023-05-14T23:42:44.112Z,14.70
2023-05-14T23:45:12.155Z,14.67
2023-05-14T23:47:39.735Z,14.64
2023-05-14T23:50:06.755Z,14.62
2023-05-14T23:52:33.568Z,14.60
2023-05-14T23:55:00.233Z,14.56
2023-05-14T23:57:26.839Z,14.52
2023-05-14T23:59:53.708Z,14.48
